Time;durP1;ratioP1;P1;durP2;ratioP2;P2;SDS_P1;SDS_P2;PMS_P1;PMS_P2;Temp;Humidity;BMP_temperature;BMP_pressure;BME280_temperature;BME280_humidity;BME280_pressure;Samples;Min_cycle;Max_cycle;Signal;HPM_P1;HPM_P2
2023/03/09 00:01:49;;;;;;;36.33;16.85;;;;;;;12.96;94.44;99294.28;4977062;28;20035;-84
2023/03/09 00:04:16;;;;;;;32.58;16.95;;;;;;;12.82;95.43;99291.88;4976919;28;20043;-82
2023/03/09 00:06:43;;;;;;;32.10;17.40;;;;;;;12.62;97.73;99273.28;4960049;28;20073;-83
2023/03/09 00:09:08;;;;;;;31.55;17.75;;;;;;;12.82;95.65;99276.75;4958111;28;20047;-83
2023/03/09 00:11:35;;;;;;;37.15;17.63;;;;;;;12.91;94.58;99258.72;4977439;28;20041;-85
2023/03/09 00:14:00;;;;;;;35.03;16.90;;;;;;;12.82;95.18;99266.09;4975750;28;20071;-83
2023/03/09 00:16:29;;;;;;;36.33;16.52;;;;;;;12.89;93.97;99256.25;4977765;28;20066;-83
2023/03/09 00:18:57;;;;;;;32.08;16.15;;;;;;;12.88;95.12;99254.63;4975944;28;20575;-84
2023/03/09 00:21:41;;;;;;;34.50;16.73;;;;;;;13.05;94.22;99249.69;4978663;28;20039;-83
2023/03/09 00:24:16;;;;;;;36.05;15.93;;;;;;;13.17;91.85;99253.34;4961944;28;20482;-84
2023/03/09 00:26:48;;;;;;;28.83;15.25;;;;;;;13.17;91.38;99263.16;4992413;28;20050;-84
2023/03/09 00:29:16;;;;;;;;;;;;;;;13.26;90.20;99267.22;4973722;28;20039;-85
2023/03/09 00:31:43;;;;;;;30.55;16.73;;;;;;;13.18;90.66;99260.31;4983185;28;19918;-83
2023/03/09 00:34:10;;;;;;;37.08;18.55;;;;;;;13.21;90.84;99275.03;4962006;28;20093;-84
2023/03/09 00:36:36;;;;;;;36.15;18.85;;;;;;;13.13;91.70;99267.28;4950845;29;20131;-83
2023/03/09 00:39:05;;;;;;;37.75;17.58;;;;;;;13.07;92.53;99271.56;4972070;28;20027;-84
2023/03/09 00:41:31;;;;;;;36.17;18.05;;;;;;;13.14;91.95;99269.72;4977252;28;20545;-85
2023/03/09 00:43:58;;;;;;;38.17;18.45;;;;;;;12.85;94.12;99254.22;4976254;28;20034;-84
2023/03/09 00:46:24;;;;;;;41.10;17.85;;;;;;;12.87;94.32;99260.16;4959003;28;20023;-83
2023/03/09 00:48:49;;;;;;;35.25;18.92;;;;;;;12.63;97.04;99245.66;4958082;28;20444;-83
2023/03/09 00:51:16;;;;;;;33.28;18.30;;;;;;;12.72;97.71;99249.75;4958187;28;20034;-82
2023/03/09 00:53:42;;;;;;;32.97;18.73;;;;;;;12.72;97.60;99248.94;4958521;28;20043;-81
2023/03/09 00:56:12;;;;;;;37.00;19.40;;;;;;;12.72;99.16;99243.63;4968943;28;20382;-82
2023/03/09 00:58:38;;;;;;;36.65;20.65;;;;;;;12.57;100.00;99235.03;4961101;28;20039;-81
2023/03/09 01:01:08;;;;;;;40.78;20.27;;;;;;;12.54;100.00;99246.06;4942779;28;20037;-83
2023/03/09 01:03:34;;;;;;;39.03;19.13;;;;;;;12.66;100.00;99239.94;4958101;28;20031;-82
2023/03/09 01:06:00;;;;;;;40.40;18.20;;;;;;;12.80;99.75;99249.53;4975687;28;20046;-84
2023/03/09 01:08:25;;;;;;;33.97;18.85;;;;;;;12.67;99.13;99254.84;4975699;28;20035;-86
2023/03/09 01:10:51;;;;;;;39.50;20.50;;;;;;;12.69;99.93;99244.84;4976902;28;20101;-83
2023/03/09 01:13:16;;;;;;;44.97;19.77;;;;;;;12.62;100.00;99237.91;4960356;28;20031;-83
2023/03/09 01:15:42;;;;;;;37.40;19.38;;;;;;;12.69;100.00;99222.75;4978472;28;20079;-81
2023/03/09 01:18:08;;;;;;;37.75;20.50;;;;;;;12.75;98.62;99235.22;4979994;28;20097;-82
2023/03/09 01:20:34;;;;;;;39.78;20.65;;;;;;;12.66;99.70;99231.94;4961095;28;20031;-81
2023/03/09 01:22:59;;;;;;;41.25;19.85;;;;;;;12.62;99.64;99238.72;4961446;28;20141;-82
2023/03/09 01:25:31;;;;;;;35.72;20.63;;;;;;;12.61;99.13;99244.22;4960709;28;20437;-84
2023/03/09 01:27:56;;;;;;;38.28;19.95;;;;;;;12.51;100.00;99242.00;4961211;28;20105;-81
2023/03/09 01:30:22;;;;;;;40.78;20.73;;;;;;;12.53;100.00;99245.25;4981514;28;20030;-82
2023/03/09 01:32:48;;;;;;;38.00;20.13;;;;;;;12.52;100.00;99248.97;4979500;28;20043;-83
2023/03/09 01:35:14;;;;;;;45.25;19.88;;;;;;;12.55;100.00;99258.34;4997302;28;20034;-83
2023/03/09 01:37:39;;;;;;;36.80;19.92;;;;;;;12.50;100.00;99256.28;4980264;28;20150;-81
2023/03/09 01:40:07;;;;;;;48.58;20.50;;;;;;;12.49;100.00;99265.31;4997230;28;20065;-82
2023/03/09 01:42:33;;;;;;;42.70;21.52;;;;;;;12.45;100.00;99277.38;4997455;28;20018;-82
2023/03/09 01:45:25;;;;;;;42.90;21.65;;;;;;;12.23;100.00;99292.66;4979634;28;20110;-82
2023/03/09 01:47:51;;;;;;;43.28;21.60;;;;;;;12.12;100.00;99295.13;4957418;28;20046;-82
2023/03/09 01:50:21;;;;;;;46.97;20.90;;;;;;;12.07;100.00;99297.53;4996966;28;20485;-81
2023/03/09 01:52:51;;;;;;;42.28;22.73;;;;;;;12.10;100.00;99307.75;4979516;28;20062;-82
2023/03/09 01:55:22;;;;;;;44.20;23.35;;;;;;;12.05;100.00;99304.91;4997447;28;20034;-82
2023/03/09 01:57:55;;;;;;;46.25;22.08;;;;;;;12.05;100.00;99315.53;4979514;28;20053;-82
2023/03/09 02:00:24;;;;;;;;;;;;;;;11.98;100.00;99320.81;4979277;28;20498;-83
2023/03/09 02:03:10;;;;;;;41.20;21.17;;;;;;;11.93;100.00;99329.38;4964769;28;19922;-80
2023/03/09 02:06:10;;;;;;;44.33;21.20;;;;;;;11.93;100.00;99332.03;4979930;28;20088;-81
2023/03/09 02:08:42;;;;;;;43.28;20.75;;;;;;;11.98;100.00;99315.50;4979162;28;20045;-82
2023/03/09 02:11:11;;;;;;;39.55;20.73;;;;;;;11.95;100.00;99309.78;4979355;28;20034;-83
2023/03/09 02:13:41;;;;;;;39.70;19.70;;;;;;;11.95;100.00;99302.63;4963895;28;20042;-81
2023/03/09 02:16:07;;;;;;;46.45;21.15;;;;;;;11.93;100.00;99309.16;4979412;28;20030;-83
2023/03/09 02:18:33;;;;;;;38.97;20.10;;;;;;;12.01;100.00;99319.59;4980323;28;20093;-85
2023/03/09 02:20:58;;;;;;;40.75;20.38;;;;;;;12.00;100.00;99312.66;4979391;28;20050;-84
2023/03/09 02:23:30;;;;;;;39.28;19.88;;;;;;;11.97;100.00;99315.69;4979158;28;20062;-86
2023/03/09 02:26:31;;;;;;;41.35;21.08;;;;;;;11.99;100.00;99305.72;4978776;28;20396;-85
2023/03/09 02:28:57;;;;;;;44.17;20.20;;;;;;;11.92;100.00;99303.03;4898361;29;20100;-83
2023/03/09 02:31:23;;;;;;;41.10;20.10;;;;;;;11.99;100.00;99295.09;4902148;29;20032;-84
2023/03/09 02:33:48;;;;;;;38.42;19.33;;;;;;;12.08;100.00;99275.28;4909477;29;20115;-83
2023/03/09 02:36:14;;;;;;;38.60;20.67;;;;;;;12.05;100.00;99288.97;4924966;29;20048;-83
2023/03/09 02:38:42;;;;;;;43.22;19.83;;;;;;;11.96;100.00;99285.69;4911959;28;20124;-84
2023/03/09 02:41:12;;;;;;;47.30;20.45;;;;;;;12.02;100.00;99276.09;4994522;28;20553;-84
2023/03/09 02:43:50;;;;;;;40.97;19.40;;;;;;;12.06;100.00;99258.75;4980046;28;20044;-84
2023/03/09 02:46:16;;;;;;;39.47;18.88;;;;;;;12.08;100.00;99232.78;4978780;28;20382;-83
2023/03/09 02:48:42;;;;;;;42.30;19.23;;;;;;;12.17;100.00;99236.88;4995846;28;20481;-83
2023/03/09 02:51:07;;;;;;;36.78;19.15;;;;;;;12.37;100.00;99219.09;4996115;28;20045;-83
2023/03/09 02:53:34;;;;;;;42.28;19.67;;;;;;;12.34;100.00;99222.16;4978688;28;20044;-83
2023/03/09 02:56:00;;;;;;;33.35;18.42;;;;;;;12.51;100.00;99231.38;4995633;28;20385;-84
2023/03/09 02:58:26;;;;;;;41.17;18.10;;;;;;;12.65;100.00;99232.16;4996043;28;20034;-83
2023/03/09 03:00:51;;;;;;;35.90;18.42;;;;;;;12.73;98.15;99234.59;4978079;28;20036;-86
2023/03/09 03:03:20;;;;;;;37.13;18.38;;;;;;;12.79;97.67;99234.59;4995936;28;20104;-83
2023/03/09 03:05:48;;;;;;;36.22;18.17;;;;;;;12.93;96.07;99236.19;4977682;28;20046;-84
2023/03/09 03:08:14;;;;;;;35.78;18.70;;;;;;;12.88;95.28;99238.69;4978882;28;20076;-85
2023/03/09 03:10:39;;;;;;;35.35;19.35;;;;;;;12.46;98.76;99241.81;4977571;28;20042;-85
2023/03/09 03:13:05;;;;;;;37.40;18.40;;;;;;;12.23;100.00;99217.50;4979887;28;20102;-84
2023/03/09 03:15:32;;;;;;;37.47;18.65;;;;;;;12.03;100.00;99212.16;4957695;28;20421;-84
2023/03/09 03:17:58;;;;;;;36.70;18.60;;;;;;;11.97;100.00;99205.00;5001051;28;20093;-85
2023/03/09 03:20:25;;;;;;;37.70;19.52;;;;;;;12.01;100.00;99210.72;4979648;28;20022;-83
2023/03/09 03:22:51;;;;;;;38.60;19.35;;;;;;;11.93;100.00;99209.91;4981229;28;20031;-86
2023/03/09 03:25:22;;;;;;;37.45;19.73;;;;;;;11.93;100.00;99205.63;4984283;28;20022;-84
2023/03/09 03:27:50;;;;;;;40.25;19.25;;;;;;;11.88;100.00;99203.56;5006112;28;20049;-82
2023/03/09 03:30:16;;;;;;;36.47;18.85;;;;;;;11.87;100.00;99205.41;5000776;28;20045;-83
2023/03/09 03:32:45;;;;;;;37.25;19.98;;;;;;;11.95;100.00;99200.91;4995409;28;20118;-85
2023/03/09 03:35:13;;;;;;;35.75;18.92;;;;;;;11.95;100.00;99208.88;4963681;28;20031;-84
2023/03/09 03:37:43;;;;;;;36.38;18.42;;;;;;;11.95;100.00;99214.19;4964617;28;20041;-83
2023/03/09 03:40:13;;;;;;;34.10;18.38;;;;;;;12.00;100.00;99217.06;4979990;28;20085;-84
2023/03/09 03:42:41;;;;;;;42.55;18.50;;;;;;;12.00;100.00;99217.06;4979348;28;20076;-84
2023/03/09 03:45:09;;;;;;;37.45;19.92;;;;;;;11.96;100.00;99215.84;4962226;28;20452;-84
2023/03/09 03:47:35;;;;;;;38.35;19.73;;;;;;;12.00;100.00;99207.25;4976976;28;20042;-83
2023/03/09 03:50:01;;;;;;;41.28;19.20;;;;;;;12.03;100.00;99211.34;4977160;28;20034;-84
2023/03/09 03:52:28;;;;;;;36.80;18.33;;;;;;;11.87;100.00;99223.97;4977768;28;20037;-83
2023/03/09 03:54:56;;;;;;;38.30;20.23;;;;;;;11.80;100.00;99223.16;4977194;28;20034;-83
2023/03/09 03:57:26;;;;;;;36.50;20.33;;;;;;;11.69;100.00;99225.56;4977101;28;20097;-84
2023/03/09 03:59:52;;;;;;;47.42;19.25;;;;;;;11.66;100.00;99232.09;4978292;28;20038;-84
2023/03/09 04:02:18;;;;;;;39.47;19.48;;;;;;;11.63;100.00;99237.81;4994739;28;20038;-83
2023/03/09 04:04:44;;;;;;;39.22;20.13;;;;;;;11.57;100.00;99243.88;4994408;28;20400;-84
2023/03/09 04:07:10;;;;;;;43.88;20.30;;;;;;;11.54;100.00;99246.13;4977060;28;20067;-86
2023/03/09 04:09:36;;;;;;;43.70;21.58;;;;;;;11.59;100.00;99246.34;4976370;28;20030;-84
2023/03/09 04:12:02;;;;;;;39.38;19.35;;;;;;;11.58;100.00;99244.72;4977854;28;20037;-83
2023/03/09 04:14:32;;;;;;;43.53;21.10;;;;;;;11.41;100.00;99249.53;4976780;28;20501;-83
2023/03/09 04:16:57;;;;;;;41.80;19.92;;;;;;;11.31;100.00;99259.69;4978538;28;20037;-84
2023/03/09 04:19:26;;;;;;;39.50;19.88;;;;;;;11.25;100.00;99260.50;4976995;28;20038;-85
2023/03/09 04:21:51;;;;;;;39.85;20.55;;;;;;;11.26;100.00;99267.44;4978137;28;20042;-85
2023/03/09 04:24:18;;;;;;;38.55;20.02;;;;;;;11.20;100.00;99269.03;4976622;28;20117;-84
2023/03/09 04:26:44;;;;;;;41.78;20.45;;;;;;;11.18;100.00;99271.06;4994372;28;20121;-83
2023/03/09 04:29:15;;;;;;;44.38;20.77;;;;;;;11.04;100.00;99271.19;4982362;28;20034;-83
2023/03/09 04:31:41;;;;;;;39.25;20.27;;;;;;;11.07;100.00;99273.47;4984335;28;20065;-84
2023/03/09 04:34:10;;;;;;;41.17;20.20;;;;;;;10.94;100.00;99273.41;4985213;28;20045;-83
2023/03/09 04:36:36;;;;;;;42.85;21.02;;;;;;;10.87;100.00;99276.00;5002925;28;20034;-84
2023/03/09 04:39:04;;;;;;;39.25;21.00;;;;;;;10.83;100.00;99283.53;4981366;28;20038;-83
2023/03/09 04:41:32;;;;;;;43.22;21.83;;;;;;;10.77;100.00;99286.13;4977063;28;20039;-83
2023/03/09 04:44:00;;;;;;;42.53;21.33;;;;;;;10.71;100.00;99292.19;4978908;28;20524;-84
2023/03/09 04:46:26;;;;;;;44.15;20.95;;;;;;;10.58;100.00;99295.56;4995064;28;20038;-84
2023/03/09 04:48:55;;;;;;;36.03;20.33;;;;;;;10.60;100.00;99311.28;4980321;28;20065;-83
2023/03/09 04:51:21;;;;;;;44.83;20.15;;;;;;;10.54;100.00;99306.75;4980530;28;20046;-85
2023/03/09 04:53:50;;;;;;;41.60;20.20;;;;;;;10.59;100.00;99301.69;4997998;28;20030;-84
2023/03/09 04:56:16;;;;;;;38.22;20.15;;;;;;;10.66;100.00;99299.91;4997684;28;20039;-84
2023/03/09 04:58:47;;;;;;;39.53;20.00;;;;;;;10.54;100.00;99304.88;4979875;28;20031;-83
2023/03/09 05:01:14;;;;;;;44.95;20.50;;;;;;;10.53;100.00;99311.22;4980034;28;20066;-83
2023/03/09 05:03:40;;;;;;;40.08;20.45;;;;;;;10.50;100.00;99289.59;4979401;28;20497;-83
2023/03/09 05:06:07;;;;;;;36.83;19.23;;;;;;;10.54;100.00;99296.94;4980013;28;20034;-82
2023/03/09 05:08:34;;;;;;;38.97;19.45;;;;;;;10.46;100.00;99291.78;4985825;28;20073;-82
2023/03/09 05:11:00;;;;;;;35.30;19.70;;;;;;;10.44;100.00;99293.00;4979673;28;20034;-84
2023/03/09 05:13:26;;;;;;;39.70;18.73;;;;;;;10.37;100.00;99303.53;4979725;28;20534;-85
2023/03/09 05:15:52;;;;;;;42.72;20.55;;;;;;;10.40;100.00;99287.28;4979672;28;20125;-83
2023/03/09 05:18:18;;;;;;;35.92;20.50;;;;;;;10.38;100.00;99283.97;4996976;28;20157;-84
2023/03/09 05:20:43;;;;;;;43.28;19.30;;;;;;;10.42;100.00;99287.06;4979270;28;20041;-82
2023/03/09 05:23:09;;;;;;;37.28;20.05;;;;;;;10.44;100.00;99293.78;4980265;28;20034;-81
2023/03/09 05:25:35;;;;;;;37.75;20.83;;;;;;;10.44;100.00;99288.50;4982679;28;20047;-83
2023/03/09 05:28:04;;;;;;;33.33;19.65;;;;;;;10.41;100.00;99298.69;4985249;28;20050;-82
2023/03/09 05:30:31;;;;;;;34.00;18.85;;;;;;;10.41;100.00;99294.19;4984467;28;20034;-82
2023/03/09 05:32:58;;;;;;;37.05;19.50;;;;;;;10.37;100.00;99292.94;4984139;28;20449;-83
2023/03/09 05:35:25;;;;;;;33.85;19.23;;;;;;;10.54;100.00;99275.75;4964366;28;20034;-83
2023/03/09 05:38:00;;;;;;;41.33;20.13;;;;;;;10.62;100.00;99278.28;4981365;28;20489;-85
2023/03/09 05:40:46;;;;;;;38.28;19.20;;;;;;;10.75;100.00;99280.19;4980950;28;20034;-84
2023/03/09 05:43:13;;;;;;;33.45;17.70;;;;;;;10.63;100.00;99271.97;4980420;28;20054;-81
2023/03/09 05:45:39;;;;;;;40.08;18.15;;;;;;;10.55;100.00;99280.03;4981484;28;20034;-82
2023/03/09 05:48:04;;;;;;;36.17;19.73;;;;;;;10.40;100.00;99275.84;4985782;28;20480;-82
2023/03/09 05:50:31;;;;;;;36.58;17.77;;;;;;;10.26;100.00;99280.22;4985677;28;20070;-83
2023/03/09 05:52:58;;;;;;;40.60;19.17;;;;;;;10.14;100.00;99281.75;4970229;28;20149;-84
2023/03/09 05:55:24;;;;;;;40.05;18.85;;;;;;;10.10;100.00;99285.72;4982028;28;20362;-82
2023/03/09 05:57:50;;;;;;;32.70;17.98;;;;;;;10.07;100.00;99284.28;4983289;28;20110;-86
2023/03/09 06:00:17;;;;;;;34.10;18.45;;;;;;;10.09;100.00;99284.09;4965349;28;20041;-80
2023/03/09 06:02:52;;;;;;;39.13;19.75;;;;;;;10.40;100.00;99292.56;4982464;28;20084;-83
2023/03/09 06:05:23;;;;;;;32.90;17.67;;;;;;;10.73;100.00;99293.66;4981253;28;20489;-82
2023/03/09 06:07:51;;;;;;;37.80;18.30;;;;;;;10.54;100.00;99289.00;4982940;28;20034;-84
2023/03/09 06:10:17;;;;;;;34.75;18.38;;;;;;;10.31;100.00;99298.97;4999115;28;20086;-84
2023/03/09 06:12:42;;;;;;;28.75;17.98;;;;;;;10.41;100.00;99304.78;4965769;28;20473;-83
2023/03/09 06:15:09;;;;;;;33.58;16.83;;;;;;;10.30;100.00;99300.84;4981607;28;20034;-84
2023/03/09 06:17:37;;;;;;;44.88;17.88;;;;;;;10.38;100.00;99305.16;4983626;28;20022;-84
2023/03/09 06:20:05;;;;;;;36.80;17.75;;;;;;;10.54;100.00;99294.28;4980630;28;20511;-83
2023/03/09 06:22:34;;;;;;;39.20;17.13;;;;;;;10.54;100.00;99304.88;4979652;28;20103;-81
2023/03/09 06:25:00;;;;;;;31.17;16.92;;;;;;;10.53;100.00;99297.16;4976060;28;20051;-83
2023/03/09 06:27:25;;;;;;;32.30;16.95;;;;;;;10.86;100.00;99303.50;4968897;28;20482;-80
2023/03/09 06:29:53;;;;;;;29.85;16.17;;;;;;;11.00;100.00;99299.94;4973873;28;20057;-81
2023/03/09 06:32:19;;;;;;;29.33;15.65;;;;;;;11.16;100.00;99304.13;5011570;28;20038;-82
2023/03/09 06:34:44;;;;;;;27.63;15.35;;;;;;;11.21;100.00;99312.28;4998925;28;20034;-87
2023/03/09 06:37:12;;;;;;;29.77;15.80;;;;;;;11.57;100.00;99312.88;4989095;28;20026;-86
2023/03/09 06:39:43;;;;;;;30.33;15.27;;;;;;;12.10;100.00;99318.38;4964447;28;20097;-85
2023/03/09 06:42:10;;;;;;;38.40;16.63;;;;;;;12.69;100.00;99324.59;4980027;28;20034;-83
2023/03/09 06:44:42;;;;;;;37.00;17.40;;;;;;;13.31;100.00;99328.63;4980013;28;20030;-85
2023/03/09 06:47:09;;;;;;;32.45;16.38;;;;;;;14.00;100.00;99328.78;4981402;28;20034;-87
2023/03/09 06:49:35;;;;;;;29.30;14.48;;;;;;;15.17;100.00;99331.59;4963394;28;20038;-83
2023/03/09 06:52:05;;;;;;;28.75;13.30;;;;;;;14.91;100.00;99321.97;4980303;28;20042;-84
2023/03/09 06:54:35;;;;;;;25.70;12.77;;;;;;;15.90;100.00;99324.44;4997738;28;20088;-85
2023/03/09 06:57:13;;;;;;;27.30;12.77;;;;;;;15.07;100.00;99327.81;4996771;28;20042;-85
2023/03/09 06:59:39;;;;;;;27.05;12.82;;;;;;;13.95;100.00;99326.72;4980320;28;20092;-85
2023/03/09 07:02:05;;;;;;;27.50;12.80;;;;;;;13.96;100.00;99327.56;4979443;28;20431;-84
2023/03/09 07:04:31;;;;;;;22.52;11.98;;;;;;;13.91;100.00;99328.22;4978669;28;20035;-87
2023/03/09 07:06:57;;;;;;;22.10;12.55;;;;;;;13.62;100.00;99330.59;4979789;28;20205;-88
2023/03/09 07:09:22;;;;;;;26.63;14.07;;;;;;;13.70;100.00;99333.00;4996349;28;20481;-85
2023/03/09 07:11:48;;;;;;;25.17;13.57;;;;;;;13.53;100.00;99324.66;4960267;28;20482;-85
2023/03/09 07:14:14;;;;;;;28.23;13.65;;;;;;;13.93;100.00;99328.81;4976963;28;20066;-85
2023/03/09 07:16:41;;;;;;;30.75;14.05;;;;;;;14.19;100.00;99327.84;4976692;28;20038;-88
2023/03/09 07:19:06;;;;;;;24.83;12.70;;;;;;;14.59;100.00;99339.06;4976993;28;20039;-86
2023/03/09 07:21:32;;;;;;;27.67;13.90;;;;;;;14.93;100.00;99341.28;4977397;28;20043;-87
2023/03/09 07:23:57;;;;;;;26.23;12.98;;;;;;;14.71;100.00;99339.22;4976052;28;20118;-85
2023/03/09 07:26:23;;;;;;;24.25;12.57;;;;;;;14.41;100.00;99342.50;4962327;28;20031;-87
2023/03/09 07:28:48;;;;;;;22.40;13.35;;;;;;;13.90;100.00;99329.22;4960261;28;20070;-86
2023/03/09 07:31:14;;;;;;;26.58;12.38;;;;;;;13.96;100.00;99328.38;4977158;28;20035;-87
2023/03/09 07:33:39;;;;;;;31.35;13.52;;;;;;;14.24;100.00;99329.88;4976984;28;20027;-84
2023/03/09 07:36:07;;;;;;;28.02;14.05;;;;;;;14.70;100.00;99340.22;4975452;28;20031;-83
2023/03/09 07:38:32;;;;;;;24.38;13.05;;;;;;;14.95;100.00;99338.38;4976048;28;20370;-82
2023/03/09 07:41:00;;;;;;;28.77;12.05;;;;;;;15.19;100.00;99334.03;4976009;28;20038;-83
2023/03/09 07:43:26;;;;;;;25.08;12.57;;;;;;;15.88;100.00;99339.84;4975495;28;20125;-83
2023/03/09 07:46:05;;;;;;;19.52;11.35;;;;;;;16.17;98.45;99342.78;4959398;28;20038;-85
2023/03/09 07:48:30;;;;;;;24.40;11.20;;;;;;;16.75;96.27;99357.16;4950497;28;20047;-87
2023/03/09 07:50:58;;;;;;;22.48;10.68;;;;;;;17.85;86.53;99363.41;4958739;28;20049;-86
2023/03/09 07:53:23;;;;;;;23.83;10.93;;;;;;;16.72;90.74;99368.31;4976852;28;20109;-85
2023/03/09 07:55:56;;;;;;;21.50;9.85;;;;;;;16.73;91.22;99366.47;4976771;28;20031;-86
2023/03/09 07:58:22;;;;;;;19.10;10.05;;;;;;;17.70;86.79;99360.41;4976399;28;20039;-83
2023/03/09 08:00:47;;;;;;;18.60;9.55;;;;;;;17.55;83.21;99373.47;4976425;28;20066;-82
2023/03/09 08:03:13;;;;;;;22.98;9.98;;;;;;;17.38;85.33;99373.38;4976977;28;20085;-82
2023/03/09 08:05:40;;;;;;;26.48;9.93;;;;;;;17.35;85.07;99387.22;4977258;28;20031;-83
2023/03/09 08:08:05;;;;;;;22.42;9.63;;;;;;;16.80;88.61;99381.38;4960044;28;20038;-83
2023/03/09 08:10:32;;;;;;;19.90;9.25;;;;;;;16.75;91.81;99377.72;4962939;28;20485;-82
2023/03/09 08:12:57;;;;;;;20.23;9.27;;;;;;;16.83;87.61;99380.09;4976748;28;20485;-84
2023/03/09 08:15:23;;;;;;;22.73;8.77;;;;;;;16.69;87.72;99384.00;4975919;28;20123;-83
2023/03/09 08:17:49;;;;;;;30.98;9.63;;;;;;;16.50;89.55;99375.22;4976058;28;20417;-83
2023/03/09 08:20:15;;;;;;;16.95;8.65;;;;;;;16.71;89.59;99377.38;4979374;28;20046;-85
2023/03/09 08:22:41;;;;;;;19.42;9.32;;;;;;;16.56;89.77;99368.97;4982833;28;20505;-83
2023/03/09 08:25:08;;;;;;;22.10;9.10;;;;;;;16.71;88.96;99377.38;4967728;28;20059;-83
2023/03/09 08:27:38;;;;;;;19.08;9.63;;;;;;;17.11;84.96;99379.41;4984858;28;20098;-81
2023/03/09 08:30:05;;;;;;;18.10;8.90;;;;;;;17.70;85.52;99376.50;4969328;28;20039;-83
2023/03/09 08:32:30;;;;;;;24.33;9.50;;;;;;;18.92;73.51;99385.81;4986266;28;20037;-82
2023/03/09 08:34:56;;;;;;;18.30;9.27;;;;;;;17.98;78.03;99392.63;4982905;28;20028;-83
2023/03/09 08:37:22;;;;;;;22.70;10.75;;;;;;;17.63;78.27;99396.44;4969068;28;20037;-83
2023/03/09 08:39:51;;;;;;;21.25;10.20;;;;;;;17.56;78.85;99385.84;4973604;28;20027;-83
2023/03/09 08:42:17;;;;;;;24.42;9.93;;;;;;;16.88;83.16;99389.06;4982384;28;20030;-84
2023/03/09 08:44:42;;;;;;;19.90;9.77;;;;;;;16.84;84.61;99387.88;4997799;28;20090;-84
2023/03/09 08:47:08;;;;;;;26.85;10.80;;;;;;;16.80;85.96;99389.41;5001906;28;20037;-83
2023/03/09 08:49:37;;;;;;;25.48;10.35;;;;;;;17.04;84.88;99388.38;5000613;28;20069;-84
2023/03/09 08:52:03;;;;;;;25.67;10.88;;;;;;;17.28;82.29;99393.75;4981687;28;20042;-83
2023/03/09 08:54:28;;;;;;;23.05;11.25;;;;;;;17.08;83.27;99388.72;4999376;28;20031;-81
2023/03/09 08:56:54;;;;;;;26.10;12.57;;;;;;;16.77;86.13;99395.19;4982528;28;20034;-84
2023/03/09 08:59:19;;;;;;;25.30;12.35;;;;;;;17.23;83.62;99396.31;4998023;28;20058;-83
2023/03/09 09:01:45;;;;;;;32.13;13.35;;;;;;;17.37;81.93;99398.50;4998943;28;20031;-82
2023/03/09 09:04:10;;;;;;;32.45;12.73;;;;;;;17.76;80.51;99394.34;5000894;28;20030;-84
2023/03/09 09:06:36;;;;;;;37.58;14.68;;;;;;;17.15;81.60;99393.97;4997481;28;20069;-82
2023/03/09 09:09:03;;;;;;;28.20;13.93;;;;;;;17.09;82.26;99402.94;5000079;28;20041;-83
2023/03/09 09:11:29;;;;;;;26.15;13.55;;;;;;;17.13;82.84;99390.72;4983928;28;20035;-85
2023/03/09 09:13:55;;;;;;;27.15;13.55;;;;;;;17.50;79.14;99386.72;5001814;28;20087;-82
2023/03/09 09:16:20;;;;;;;23.52;13.52;;;;;;;17.94;77.47;99388.78;4982503;28;20058;-81
2023/03/09 09:18:47;;;;;;;28.85;14.68;;;;;;;17.99;78.60;99374.69;4998463;28;20018;-81
2023/03/09 09:21:14;;;;;;;29.08;15.98;;;;;;;17.98;77.03;99389.97;5000818;28;20034;-82
2023/03/09 09:23:41;;;;;;;33.75;15.27;;;;;;;17.82;76.17;99401.44;5000980;28;20034;-82
2023/03/09 09:26:08;;;;;;;30.00;15.18;;;;;;;18.11;75.04;99398.78;5002012;28;20350;-82
2023/03/09 09:28:33;;;;;;;29.35;15.70;;;;;;;18.84;69.74;99407.69;5004894;28;20066;-82
2023/03/09 09:31:00;;;;;;;35.60;14.68;;;;;;;18.67;70.75;99409.53;5008566;28;20042;-81
2023/03/09 09:33:28;;;;;;;38.00;16.58;;;;;;;18.84;69.85;99409.56;5009097;28;20022;-82
2023/03/09 09:36:02;;;;;;;32.85;16.42;;;;;;;19.30;70.02;99411.09;4986117;28;20045;-85
2023/03/09 09:38:30;;;;;;;30.05;15.85;;;;;;;19.34;69.01;99409.56;4998373;28;20492;-83
2023/03/09 09:40:59;;;;;;;33.08;15.95;;;;;;;19.32;68.07;99417.84;5003483;28;20082;-82
2023/03/09 09:43:27;;;;;;;33.10;15.70;;;;;;;18.55;69.98;99412.28;5002875;28;20030;-82
2023/03/09 09:45:56;;;;;;;30.25;16.10;;;;;;;18.54;70.98;99410.66;5005565;28;20042;-80
2023/03/09 09:48:22;;;;;;;28.65;15.38;;;;;;;19.33;67.24;99408.75;5004558;28;20046;-82
2023/03/09 09:51:29;;;;;;;29.30;14.52;;;;;;;19.48;63.25;99400.97;5000562;28;20038;-82
2023/03/09 09:54:02;;;;;;;31.08;15.07;;;;;;;19.67;65.24;99409.53;4985481;28;20033;-85
2023/03/09 09:57:00;;;;;;;39.72;17.15;;;;;;;19.90;61.61;99409.31;5010415;28;20045;-85
2023/03/09 09:59:42;;;;;;;37.00;16.48;;;;;;;19.65;61.97;99414.38;5007197;28;20072;-85
2023/03/09 10:02:07;;;;;;;32.83;16.17;;;;;;;19.88;62.33;99416.00;4997057;28;20058;-81
2023/03/09 10:04:44;;;;;;;39.75;15.15;;;;;;;20.52;60.10;99411.66;5013155;28;20045;-86
2023/03/09 10:07:18;;;;;;;30.92;13.93;;;;;;;21.15;54.97;99405.53;4994834;28;20046;-86
2023/03/09 10:09:48;;;;;;;36.63;14.18;;;;;;;20.89;55.11;99409.06;4992903;28;20078;-86
2023/03/09 10:12:16;;;;;;;29.20;14.18;;;;;;;20.38;57.74;99413.16;4985800;23;20147;-90
2023/03/09 10:14:54;;;;;;;32.88;14.68;;;;;;;20.90;55.75;99413.38;4959342;29;20093;-86
2023/03/09 10:17:33;;;;;;;26.02;14.52;;;;;;;21.17;55.56;99407.97;4957247;29;20134;-87
2023/03/09 10:20:13;;;;;;;28.75;14.23;;;;;;;20.84;54.88;99407.16;4957279;29;20039;-86
2023/03/09 10:22:39;;;;;;;33.70;13.77;;;;;;;20.74;55.95;99401.66;4957434;29;20047;-85
2023/03/09 10:25:11;;;;;;;28.38;12.68;;;;;;;21.61;53.51;99406.66;4957513;29;20027;-88
2023/03/09 10:27:46;;;;;;;28.27;13.35;;;;;;;22.50;51.28;99399.25;4956581;29;20086;-87
2023/03/09 10:30:20;;;;;;;23.85;13.18;;;;;;;22.52;49.49;99404.34;4957553;29;20459;-87
2023/03/09 10:32:49;;;;;;;23.67;12.77;;;;;;;23.05;47.02;99408.50;4957833;29;20438;-85
2023/03/09 10:35:39;;;;;;;24.60;11.57;;;;;;;23.67;45.35;99410.88;4957357;29;20066;-87
2023/03/09 10:38:15;;;;;;;24.55;11.25;;;;;;;23.14;46.13;99406.88;4956872;29;20039;-89
2023/03/09 10:40:49;;;;;;;25.23;12.75;;;;;;;23.67;44.35;99410.88;4939984;29;20066;-89
2023/03/09 10:43:33;;;;;;;26.73;11.82;;;;;;;22.50;48.10;99403.81;4956591;29;20051;-87
2023/03/09 10:46:21;;;;;;;22.25;10.80;;;;;;;22.87;47.21;99406.34;4924454;29;20486;-88
2023/03/09 10:48:49;;;;;;;22.65;11.38;;;;;;;22.41;47.67;99395.41;4960231;29;20047;-88
2023/03/09 10:51:42;;;;;;;23.00;11.13;;;;;;;22.19;48.92;99394.81;4941443;29;20059;-86
2023/03/09 10:54:35;;;;;;;32.00;11.27;;;;;;;22.61;47.86;99381.13;4957224;29;20398;-88
2023/03/09 10:57:02;;;;;;;24.48;11.60;;;;;;;23.60;45.20;99386.00;4956519;29;20090;-88
2023/03/09 10:59:29;;;;;;;24.33;10.38;;;;;;;24.43;43.15;99391.63;4924288;29;20043;-88
2023/03/09 11:01:59;;;;;;;29.48;12.35;;;;;;;24.19;42.89;99386.88;4939840;29;20398;-88
2023/03/09 11:04:32;;;;;;;21.55;10.70;;;;;;;24.68;41.68;99383.38;4939914;29;20113;-88
2023/03/09 11:07:25;;;;;;;30.98;11.75;;;;;;;24.73;41.78;99386.03;4940432;29;20035;-88
2023/03/09 11:09:52;;;;;;;22.73;11.65;;;;;;;25.45;39.68;99387.88;4934755;29;20515;-90
2023/03/09 11:12:22;;;;;;;22.60;10.95;;;;;;;25.72;39.11;99381.91;4956753;29;20039;-89
2023/03/09 11:14:57;;;;;;;20.02;10.32;;;;;;;26.60;37.72;99375.91;4956508;29;20046;-88
2023/03/09 11:17:40;;;;;;;21.50;11.30;;;;;;;26.25;37.70;99379.91;4956308;29;20047;-88
2023/03/09 11:20:12;;;;;;;25.05;11.00;;;;;;;25.63;38.72;99376.31;4957566;29;20035;-87
2023/03/09 11:22:45;;;;;;;29.73;12.20;;;;;;;23.01;45.16;99364.97;4956093;29;20054;-90